createdAt,value
2018-02-13T00:00:27.954Z,4.90
2018-02-13T00:02:55.985Z,5.00
2018-02-13T00:05:23.624Z,5.15
2018-02-13T00:07:51.221Z,4.85
2018-02-13T00:10:18.793Z,4.53
2018-02-13T00:12:46.385Z,4.60
2018-02-13T00:15:13.968Z,4.72
2018-02-13T00:17:41.546Z,4.07
2018-02-13T00:20:09.117Z,4.70
2018-02-13T00:22:48.437Z,4.68
2018-02-13T00:25:16.053Z,4.15
2018-02-13T00:27:43.622Z,4.20
2018-02-13T00:30:11.210Z,4.75
2018-02-13T00:32:38.805Z,4.45
2018-02-13T00:35:06.405Z,4.50
2018-02-13T00:37:33.949Z,4.40
2018-02-13T00:40:01.549Z,4.12
2018-02-13T00:42:29.102Z,4.43
2018-02-13T00:44:56.699Z,4.15
2018-02-13T00:47:24.341Z,3.87
2018-02-13T00:49:51.919Z,3.30
2018-02-13T00:52:19.513Z,3.97
2018-02-13T00:54:47.327Z,3.08
2018-02-13T00:57:14.958Z,3.53
2018-02-13T00:59:42.562Z,3.25
2018-02-13T01:02:10.509Z,3.05
2018-02-13T01:04:38.356Z,2.92
2018-02-13T01:07:05.954Z,3.10
2018-02-13T01:09:33.533Z,3.00
2018-02-13T01:12:01.362Z,3.00
2018-02-13T01:14:29.187Z,3.20
2018-02-13T01:16:56.762Z,2.35
2018-02-13T01:19:24.328Z,3.00
2018-02-13T01:21:51.943Z,2.30
2018-02-13T01:24:19.577Z,3.15
2018-02-13T01:26:47.561Z,3.20
2018-02-13T01:29:15.124Z,2.72
2018-02-13T01:31:42.713Z,3.08
2018-02-13T01:34:10.342Z,2.65
2018-02-13T01:36:37.925Z,3.15
2018-02-13T01:39:05.526Z,3.15
2018-02-13T01:41:33.142Z,2.75
2018-02-13T01:44:00.730Z,2.97
2018-02-13T01:46:28.549Z,2.60
2018-02-13T01:48:56.141Z,3.12
2018-02-13T01:51:23.764Z,3.60
2018-02-13T01:53:51.378Z,4.40
2018-02-13T01:56:19.310Z,4.37
2018-02-13T01:58:46.889Z,4.18
2018-02-13T02:01:14.483Z,3.37
2018-02-13T02:03:42.054Z,2.78
2018-02-13T02:06:09.662Z,2.53
2018-02-13T02:08:37.237Z,3.10
2018-02-13T02:11:04.843Z,3.33
2018-02-13T02:13:32.433Z,4.05
2018-02-13T02:16:00.080Z,3.05
2018-02-13T02:18:27.642Z,3.40
2018-02-13T02:20:55.216Z,2.95
2018-02-13T02:23:22.805Z,2.60
2018-02-13T02:25:50.766Z,2.50
2018-02-13T02:28:18.342Z,2.22
2018-02-13T02:30:45.959Z,3.00
2018-02-13T02:33:13.595Z,2.70
2018-02-13T02:35:41.159Z,2.47
2018-02-13T02:38:08.757Z,2.60
2018-02-13T02:40:36.318Z,2.33
2018-02-13T02:43:06.715Z,2.35
2018-02-13T02:45:34.283Z,2.50
2018-02-13T02:48:01.894Z,2.65
2018-02-13T02:50:29.460Z,2.97
2018-02-13T02:52:57.058Z,2.28
2018-02-13T02:55:24.602Z,2.72
2018-02-13T02:57:52.232Z,2.40
2018-02-13T03:00:19.810Z,2.72
2018-02-13T03:02:47.410Z,3.37
2018-02-13T03:05:15.009Z,3.55
2018-02-13T03:07:42.614Z,3.12
2018-02-13T03:10:10.278Z,3.35
2018-02-13T03:12:37.872Z,2.80
2018-02-13T03:15:05.431Z,2.37
2018-02-13T03:17:33.397Z,3.05
2018-02-13T03:20:01.017Z,3.10
2018-02-13T03:22:28.569Z,3.05
2018-02-13T03:24:56.157Z,2.50
2018-02-13T03:27:23.743Z,2.53
2018-02-13T03:29:51.341Z,2.45
2018-02-13T03:32:18.941Z,3.03
2018-02-13T03:34:46.937Z,2.67
2018-02-13T03:37:14.551Z,2.50
2018-02-13T03:39:42.169Z,2.60
2018-02-13T03:42:09.732Z,2.65
2018-02-13T03:44:37.373Z,2.97
2018-02-13T03:47:04.955Z,2.40
2018-02-13T03:49:32.579Z,2.35
2018-02-13T03:52:00.143Z,2.10
2018-02-13T03:54:27.771Z,2.80
2018-02-13T03:56:55.326Z,2.72
2018-02-13T03:59:23.345Z,2.53
2018-02-13T04:01:50.909Z,2.60
2018-02-13T04:04:18.879Z,2.80
2018-02-13T04:06:46.517Z,2.55
2018-02-13T04:09:14.090Z,2.42
2018-02-13T04:11:41.652Z,2.30
2018-02-13T04:14:09.231Z,2.35
2018-02-13T04:16:36.860Z,2.53
2018-02-13T04:19:04.514Z,2.00
2018-02-13T04:21:32.089Z,2.22
2018-02-13T04:23:59.718Z,2.37
2018-02-13T04:26:27.314Z,2.22
2018-02-13T04:28:54.914Z,2.15
2018-02-13T04:31:22.494Z,2.30
2018-02-13T04:33:50.057Z,2.30
2018-02-13T04:36:17.658Z,2.80
2018-02-13T04:38:45.241Z,3.53
2018-02-13T04:41:12.872Z,2.87
2018-02-13T04:43:40.416Z,3.35
2018-02-13T04:46:08.012Z,3.40
2018-02-13T04:48:35.602Z,2.92
2018-02-13T04:51:03.199Z,2.90
2018-02-13T04:53:30.782Z,2.70
2018-02-13T04:55:58.378Z,2.15
2018-02-13T04:58:25.998Z,2.50
2018-02-13T05:00:53.937Z,2.20
2018-02-13T05:03:21.505Z,2.10
2018-02-13T05:05:49.127Z,2.30
2018-02-13T05:08:16.707Z,2.80
2018-02-13T05:10:44.301Z,2.00
2018-02-13T05:13:11.864Z,1.67
2018-02-13T05:15:39.454Z,2.20
2018-02-13T05:18:07.414Z,2.30
2018-02-13T05:20:35.022Z,2.70
2018-02-13T05:23:02.588Z,2.10
2018-02-13T05:25:30.209Z,2.30
2018-02-13T05:27:57.794Z,2.20
2018-02-13T05:30:25.399Z,1.90
2018-02-13T05:32:53.030Z,2.10
2018-02-13T05:35:20.622Z,2.15
2018-02-13T05:37:48.594Z,2.35
2018-02-13T05:40:16.197Z,2.35
2018-02-13T05:42:43.856Z,2.22
2018-02-13T05:45:11.510Z,2.83
2018-02-13T05:47:39.161Z,3.37
2018-02-13T05:50:07.111Z,3.22
2018-02-13T05:52:34.719Z,4.47
2018-02-13T05:55:02.273Z,5.82
2018-02-13T05:57:29.872Z,3.53
2018-02-13T05:59:57.477Z,3.65
2018-02-13T06:02:25.065Z,2.62
2018-02-13T06:04:52.659Z,3.00
2018-02-13T06:07:20.252Z,3.42
2018-02-13T06:09:47.834Z,13.23
2018-02-13T06:12:15.438Z,14.50
2018-02-13T06:14:43.030Z,9.20
2018-02-13T06:17:10.844Z,7.32
2018-02-13T06:19:38.400Z,6.75
2018-02-13T06:22:06.000Z,10.20
2018-02-13T06:24:33.587Z,10.15
2018-02-13T06:27:01.186Z,10.10
2018-02-13T06:29:29.162Z,8.20
2018-02-13T06:31:56.806Z,9.27
2018-02-13T06:34:24.379Z,8.05
2018-02-13T06:36:51.972Z,6.90
2018-02-13T06:39:19.628Z,5.62
2018-02-13T06:41:47.234Z,5.57
2018-02-13T06:44:14.834Z,5.57
2018-02-13T06:46:42.403Z,6.37
2018-02-13T06:49:09.990Z,6.45
2018-02-13T06:51:37.628Z,6.57
2018-02-13T06:54:05.185Z,4.97
2018-02-13T06:56:32.790Z,7.47
2018-02-13T06:59:00.380Z,9.70
2018-02-13T07:01:27.956Z,10.15
2018-02-13T07:03:55.590Z,11.75
2018-02-13T07:06:23.161Z,11.40
2018-02-13T07:08:50.752Z,9.77
2018-02-13T07:11:18.320Z,8.75
2018-02-13T07:13:46.104Z,8.90
2018-02-13T07:16:13.743Z,7.87
2018-02-13T07:18:41.672Z,7.53
2018-02-13T07:21:09.285Z,6.55
2018-02-13T07:23:36.890Z,8.70
2018-02-13T07:26:04.437Z,7.70
2018-02-13T07:28:32.053Z,6.90
2018-02-13T07:30:59.679Z,4.82
2018-02-13T07:33:27.289Z,4.45
2018-02-13T07:35:55.020Z,3.75
2018-02-13T07:38:22.660Z,3.78
2018-02-13T07:40:50.298Z,4.40
2018-02-13T07:43:17.911Z,3.70
2018-02-13T07:45:45.451Z,4.03
2018-02-13T07:48:13.046Z,4.68
2018-02-13T07:50:40.990Z,6.10
2018-02-13T07:53:08.609Z,9.32
2018-02-13T07:55:36.230Z,12.90
2018-02-13T07:58:03.851Z,10.60
2018-02-13T08:00:31.707Z,7.00
2018-02-13T08:02:59.306Z,4.20
2018-02-13T08:05:26.907Z,4.85
2018-02-13T08:07:54.494Z,5.95
2018-02-13T08:10:22.134Z,6.47
2018-02-13T08:12:49.756Z,5.25
2018-02-13T08:15:17.356Z,5.00
2018-02-13T08:17:44.899Z,7.07
2018-02-13T08:20:12.530Z,5.70
2018-02-13T08:22:40.097Z,6.73
2018-02-13T08:25:07.678Z,6.03
2018-02-13T08:27:35.258Z,7.17
2018-02-13T08:30:02.847Z,7.23
2018-02-13T08:32:30.415Z,6.33
2018-02-13T08:34:57.996Z,7.93
2018-02-13T08:37:25.578Z,7.77
2018-02-13T08:39:53.161Z,6.87
2018-02-13T08:42:20.731Z,8.53
2018-02-13T08:44:48.308Z,6.13
2018-02-13T08:47:15.865Z,5.93
2018-02-13T08:49:43.512Z,6.13
2018-02-13T08:52:11.148Z,5.10
2018-02-13T08:54:38.725Z,5.13
2018-02-13T08:57:06.322Z,5.77
2018-02-13T08:59:33.915Z,6.47
2018-02-13T09:02:01.519Z,5.67
2018-02-13T09:04:29.188Z,6.20
2018-02-13T09:06:56.774Z,5.60
2018-02-13T09:09:24.368Z,5.70
2018-02-13T09:11:51.994Z,5.50
2018-02-13T09:14:19.550Z,6.30
2018-02-13T09:16:47.130Z,6.63
2018-02-13T09:19:14.766Z,6.10
2018-02-13T09:21:42.554Z,5.70
2018-02-13T09:24:10.110Z,4.73
2018-02-13T09:26:37.681Z,5.00
2018-02-13T09:29:05.250Z,5.47
2018-02-13T09:31:32.837Z,5.10
2018-02-13T09:34:00.452Z,5.33
2018-02-13T09:36:28.051Z,5.33
2018-02-13T09:38:55.683Z,5.93
2018-02-13T09:41:23.533Z,3.47
2018-02-13T09:43:51.106Z,4.37
2018-02-13T09:46:18.773Z,3.80
2018-02-13T09:48:46.350Z,5.03
2018-02-13T09:51:14.690Z,3.60
2018-02-13T09:53:42.266Z,3.30
2018-02-13T09:56:09.843Z,2.70
2018-02-13T09:58:37.410Z,2.23
2018-02-13T10:01:05.398Z,2.07
2018-02-13T10:03:33.009Z,2.37
2018-02-13T10:06:00.609Z,1.67
2018-02-13T10:08:28.166Z,1.47
2018-02-13T10:10:55.810Z,1.50
2018-02-13T10:13:23.369Z,1.30
2018-02-13T10:15:51.340Z,1.13
2018-02-13T10:18:18.939Z,1.20
2018-02-13T10:20:46.503Z,0.93
2018-02-13T10:23:14.097Z,1.20
2018-02-13T10:25:41.680Z,1.20
2018-02-13T10:28:09.300Z,1.00
2018-02-13T10:30:36.905Z,0.83
2018-02-13T10:33:04.502Z,1.10
2018-02-13T10:35:32.072Z,0.93
2018-02-13T10:37:59.679Z,0.90
2018-02-13T10:40:27.268Z,1.00
2018-02-13T10:42:54.852Z,1.10
2018-02-13T10:45:22.467Z,1.00
2018-02-13T10:47:50.060Z,1.10
2018-02-13T10:50:17.687Z,1.00
2018-02-13T10:52:45.282Z,0.97
2018-02-13T10:55:12.862Z,0.90
2018-02-13T10:57:40.464Z,0.83
2018-02-13T11:00:08.053Z,1.00
2018-02-13T11:02:35.627Z,0.83
2018-02-13T11:05:03.267Z,0.90
2018-02-13T11:07:30.868Z,1.10
2018-02-13T11:09:58.486Z,1.03
2018-02-13T11:12:26.069Z,1.20
2018-02-13T11:14:53.628Z,0.83
2018-02-13T11:17:21.207Z,0.80
2018-02-13T11:19:49.178Z,1.13
2018-02-13T11:22:18.314Z,0.90
2018-02-13T11:24:45.959Z,1.07
2018-02-13T11:27:13.535Z,1.00
2018-02-13T11:29:41.084Z,0.90
2018-02-13T11:32:08.666Z,1.30
2018-02-13T11:34:36.318Z,1.10
2018-02-13T11:37:03.897Z,0.90
2018-02-13T11:39:31.534Z,1.00
2018-02-13T11:41:59.092Z,1.20
2018-02-13T11:44:26.944Z,0.90
2018-02-13T11:46:54.495Z,1.20
2018-02-13T11:49:22.071Z,0.97
2018-02-13T11:51:49.667Z,1.20
2018-02-13T11:54:17.289Z,1.20
2018-02-13T11:56:44.951Z,1.57
2018-02-13T11:59:12.505Z,1.30
2018-02-13T12:01:40.188Z,1.30
2018-02-13T12:04:07.815Z,1.40
2018-02-13T12:06:35.367Z,1.40
2018-02-13T12:09:03.009Z,1.30
2018-02-13T12:11:30.634Z,1.73
2018-02-13T12:13:58.234Z,1.40
2018-02-13T12:16:27.395Z,1.23
2018-02-13T12:18:54.998Z,1.30
2018-02-13T12:21:22.573Z,1.17
2018-02-13T12:23:50.167Z,1.23
2018-02-13T12:26:17.719Z,1.10
2018-02-13T12:28:45.301Z,1.07
2018-02-13T12:31:12.881Z,1.20
2018-02-13T12:33:40.431Z,1.27
2018-02-13T12:36:08.248Z,1.17
2018-02-13T12:38:35.799Z,1.50
2018-02-13T12:41:03.391Z,1.20
2018-02-13T12:43:30.999Z,1.47
2018-02-13T12:45:58.586Z,1.50
2018-02-13T12:48:26.120Z,1.60
2018-02-13T12:50:53.690Z,1.27
2018-02-13T12:53:21.282Z,1.47
2018-02-13T12:55:48.890Z,1.23
2018-02-13T12:58:16.498Z,1.50
2018-02-13T13:00:44.099Z,1.27
2018-02-13T13:03:11.834Z,0.97
2018-02-13T13:05:40.269Z,1.00
2018-02-13T13:08:07.853Z,1.10
2018-02-13T13:10:35.514Z,1.30
2018-02-13T13:13:03.082Z,1.23
2018-02-13T13:15:30.685Z,1.00
2018-02-13T13:17:58.248Z,1.27
2018-02-13T13:20:25.867Z,1.80
2018-02-13T13:22:53.424Z,1.80
2018-02-13T13:25:21.050Z,1.20
2018-02-13T13:27:48.589Z,1.27
2018-02-13T13:30:16.170Z,1.20
2018-02-13T13:32:43.752Z,1.37
2018-02-13T13:35:11.346Z,1.20
2018-02-13T13:37:38.944Z,1.50
2018-02-13T13:40:06.533Z,1.33
2018-02-13T13:42:34.245Z,1.50
2018-02-13T13:45:01.838Z,1.40
2018-02-13T13:47:29.426Z,1.33
2018-02-13T13:49:57.353Z,1.50
2018-02-13T13:52:24.990Z,1.30
2018-02-13T13:54:52.540Z,1.40
2018-02-13T13:57:20.821Z,1.37
2018-02-13T13:59:48.432Z,1.40
2018-02-13T14:02:16.050Z,1.33
2018-02-13T14:04:43.638Z,1.33
2018-02-13T14:07:11.230Z,1.30
2018-02-13T14:09:38.802Z,1.47
2018-02-13T14:12:06.396Z,1.37
2018-02-13T14:14:34.342Z,1.60
2018-02-13T14:17:02.615Z,1.20
2018-02-13T14:19:30.205Z,1.60
2018-02-13T14:21:57.803Z,1.43
2018-02-13T14:24:25.373Z,1.40
2018-02-13T14:26:52.992Z,1.83
2018-02-13T14:29:20.614Z,1.50
2018-02-13T14:31:48.218Z,1.70
2018-02-13T14:34:16.167Z,1.53
2018-02-13T14:36:43.759Z,1.73
2018-02-13T14:39:11.398Z,1.60
2018-02-13T14:41:39.038Z,1.80
2018-02-13T14:44:06.648Z,1.70
2018-02-13T14:46:34.250Z,2.00
2018-02-13T14:49:01.834Z,1.90
2018-02-13T14:51:29.420Z,1.90
2018-02-13T14:53:57.047Z,1.57
2018-02-13T14:56:24.629Z,1.70
2018-02-13T14:58:52.610Z,2.00
2018-02-13T15:01:20.171Z,2.20
2018-02-13T15:03:47.759Z,1.93
2018-02-13T15:06:15.414Z,2.17
2018-02-13T15:08:42.995Z,1.60
2018-02-13T15:11:10.594Z,1.53
2018-02-13T15:13:38.178Z,1.30
2018-02-13T15:16:05.760Z,1.87
2018-02-13T15:18:38.007Z,1.23
2018-02-13T15:21:05.567Z,1.53
2018-02-13T15:23:33.158Z,1.60
2018-02-13T15:26:00.710Z,1.20
2018-02-13T15:28:28.326Z,1.50
2018-02-13T15:30:55.925Z,1.60
2018-02-13T15:33:23.539Z,1.67
2018-02-13T15:35:51.106Z,1.40
2018-02-13T15:38:18.698Z,1.50
2018-02-13T15:40:46.284Z,1.40
2018-02-13T15:43:14.709Z,1.60
2018-02-13T15:45:42.295Z,2.27
2018-02-13T15:48:09.864Z,1.80
2018-02-13T15:50:37.486Z,1.93
2018-02-13T15:53:05.070Z,1.60
2018-02-13T15:55:32.709Z,1.40
2018-02-13T15:58:00.255Z,1.60
2018-02-13T16:00:27.831Z,1.40
2018-02-13T16:02:55.737Z,1.60
2018-02-13T16:05:23.336Z,1.43
2018-02-13T16:07:50.915Z,1.50
2018-02-13T16:10:18.575Z,1.33
2018-02-13T16:12:46.223Z,1.40
2018-02-13T16:15:13.826Z,1.50
2018-02-13T16:17:41.372Z,1.50
2018-02-13T16:20:08.956Z,1.50
2018-02-13T16:22:36.814Z,1.40
2018-02-13T16:25:04.840Z,1.50
2018-02-13T16:27:32.499Z,1.40
2018-02-13T16:30:00.128Z,1.57
2018-02-13T16:32:27.697Z,1.80
2018-02-13T16:34:55.284Z,1.50
2018-02-13T16:37:22.925Z,1.60
2018-02-13T16:39:50.527Z,1.40
2018-02-13T16:42:18.109Z,1.40
2018-02-13T16:44:45.727Z,1.50
2018-02-13T16:47:13.307Z,1.50
2018-02-13T16:49:40.906Z,1.40
2018-02-13T16:52:08.473Z,1.47
2018-02-13T16:54:36.081Z,1.37
2018-02-13T16:57:03.694Z,1.50
2018-02-13T16:59:31.270Z,2.00
2018-02-13T17:01:58.854Z,2.20
2018-02-13T17:04:26.409Z,2.10
2018-02-13T17:06:54.040Z,2.70
2018-02-13T17:09:21.628Z,2.53
2018-02-13T17:11:49.593Z,2.07
2018-02-13T17:14:17.146Z,2.93
2018-02-13T17:16:44.706Z,2.60
2018-02-13T17:19:12.454Z,4.00
2018-02-13T17:21:40.213Z,5.00
2018-02-13T17:24:07.780Z,3.00
2018-02-13T17:26:35.353Z,3.30
2018-02-13T17:29:02.903Z,2.53
2018-02-13T17:31:30.491Z,3.80
2018-02-13T17:33:58.091Z,3.73
2018-02-13T17:36:25.694Z,3.60
2018-02-13T17:38:53.243Z,3.60
2018-02-13T17:41:20.821Z,3.37
2018-02-13T17:43:48.402Z,3.30
2018-02-13T17:46:16.009Z,2.80
2018-02-13T17:48:43.578Z,2.70
2018-02-13T17:51:11.190Z,4.97
2018-02-13T17:53:38.762Z,4.73
2018-02-13T17:56:06.353Z,4.27
2018-02-13T17:58:33.938Z,3.67
2018-02-13T18:01:01.511Z,3.77
2018-02-13T18:03:29.127Z,3.73
2018-02-13T18:05:56.706Z,3.87
2018-02-13T18:08:24.677Z,4.93
2018-02-13T18:10:52.500Z,5.53
2018-02-13T18:13:20.163Z,6.70
2018-02-13T18:15:47.745Z,6.63
2018-02-13T18:18:15.334Z,4.90
2018-02-13T18:20:42.961Z,4.57
2018-02-13T18:23:10.548Z,4.03
2018-02-13T18:25:38.149Z,2.60
2018-02-13T18:28:05.769Z,2.97
2018-02-13T18:30:33.399Z,2.60
2018-02-13T18:33:01.196Z,2.90
2018-02-13T18:35:28.796Z,3.87
2018-02-13T18:37:56.382Z,3.33
2018-02-13T18:40:23.997Z,3.40
2018-02-13T18:42:51.595Z,4.63
2018-02-13T18:45:19.203Z,3.43
2018-02-13T18:47:46.807Z,4.67
2018-02-13T18:50:14.459Z,5.13
2018-02-13T18:55:09.654Z,5.47
2018-02-13T18:57:37.263Z,5.17
2018-02-13T19:00:04.865Z,4.57
2018-02-13T19:02:32.450Z,4.20
2018-02-13T19:05:00.014Z,5.37
2018-02-13T19:07:27.630Z,4.90
2018-02-13T19:09:55.291Z,5.57
2018-02-13T19:12:23.148Z,5.25
2018-02-13T19:14:50.778Z,4.37
2018-02-13T19:17:18.376Z,3.87
2018-02-13T19:19:46.095Z,4.95
2018-02-13T19:22:13.717Z,4.55
2018-02-13T19:24:41.346Z,4.32
2018-02-13T19:27:08.912Z,4.37
2018-02-13T19:29:36.554Z,4.30
2018-02-13T19:32:04.210Z,3.80
2018-02-13T19:34:31.853Z,3.78
2018-02-13T19:36:59.447Z,4.00
2018-02-13T19:39:27.043Z,4.00
2018-02-13T19:41:54.676Z,3.97
2018-02-13T19:44:22.261Z,4.57
2018-02-13T19:46:49.829Z,4.18
2018-02-13T19:49:17.434Z,3.75
2018-02-13T19:51:45.025Z,4.20
2018-02-13T19:54:12.625Z,4.72
2018-02-13T19:56:40.217Z,4.72
2018-02-13T19:59:07.803Z,4.93
2018-02-13T20:01:35.403Z,4.18
2018-02-13T20:04:03.017Z,4.55
2018-02-13T20:06:30.887Z,4.93
2018-02-13T20:08:58.475Z,4.27
2018-02-13T20:11:26.110Z,3.97
2018-02-13T20:13:53.779Z,5.00
2018-02-13T20:16:22.157Z,5.05
2018-02-13T20:18:49.744Z,5.47
2018-02-13T20:21:17.353Z,5.12
2018-02-13T20:23:44.942Z,4.60
2018-02-13T20:26:12.590Z,5.53
2018-02-13T20:28:40.163Z,5.20
2018-02-13T20:31:07.781Z,4.85
2018-02-13T20:33:35.426Z,5.53
2018-02-13T20:36:03.020Z,5.32
2018-02-13T20:38:30.599Z,4.85
2018-02-13T20:40:58.449Z,5.25
2018-02-13T20:43:26.212Z,6.10
2018-02-13T20:45:53.820Z,8.85
2018-02-13T20:48:21.394Z,6.47
2018-02-13T20:50:49.007Z,5.62
2018-02-13T20:53:16.566Z,6.90
2018-02-13T20:55:44.211Z,5.28
2018-02-13T20:58:11.830Z,4.62
2018-02-13T21:00:39.679Z,4.85
2018-02-13T21:03:07.254Z,4.65
2018-02-13T21:05:34.847Z,5.50
2018-02-13T21:08:02.431Z,4.65
2018-02-13T21:10:30.047Z,4.95
2018-02-13T21:12:57.647Z,5.30
2018-02-13T21:15:25.298Z,5.00
2018-02-13T21:17:52.883Z,5.47
2018-02-13T21:20:20.489Z,5.50
2018-02-13T21:22:48.095Z,5.85
2018-02-13T21:25:16.092Z,5.50
2018-02-13T21:27:43.730Z,5.82
2018-02-13T21:30:11.529Z,6.68
2018-02-13T21:32:39.155Z,7.20
2018-02-13T21:35:06.737Z,7.22
2018-02-13T21:37:34.381Z,9.15
2018-02-13T21:40:01.959Z,9.43
2018-02-13T21:42:30.161Z,9.45
2018-02-13T21:44:57.723Z,9.43
2018-02-13T21:47:25.346Z,9.40
2018-02-13T21:49:52.968Z,8.48
2018-02-13T21:52:20.581Z,6.55
2018-02-13T21:54:48.160Z,6.68
2018-02-13T21:57:15.797Z,6.12
2018-02-13T21:59:43.368Z,6.22
2018-02-13T22:02:11.004Z,5.82
2018-02-13T22:04:38.743Z,6.72
2018-02-13T22:07:10.168Z,7.03
2018-02-13T22:09:37.738Z,7.53
2018-02-13T22:12:11.036Z,8.00
2018-02-13T22:14:39.026Z,7.07
2018-02-13T22:17:06.634Z,8.00
2018-02-13T22:19:34.209Z,8.02
2018-02-13T22:22:01.816Z,6.62
2018-02-13T22:24:29.442Z,6.50
2018-02-13T22:26:57.264Z,6.93
2018-02-13T22:29:24.871Z,6.47
2018-02-13T22:31:52.458Z,6.50
2018-02-13T22:34:20.347Z,5.62
2018-02-13T22:36:47.946Z,5.20
2018-02-13T22:39:15.539Z,5.55
2018-02-13T22:41:43.120Z,8.50
2018-02-13T22:44:10.705Z,9.15
2018-02-13T22:46:38.266Z,9.18
2018-02-13T22:49:05.894Z,8.25
2018-02-13T22:51:33.463Z,38.58
2018-02-13T22:54:01.447Z,16.90
2018-02-13T22:56:29.290Z,9.25
2018-02-13T22:58:56.945Z,8.63
2018-02-13T23:01:24.503Z,8.25
2018-02-13T23:03:52.476Z,8.63
2018-02-13T23:06:20.083Z,8.75
2018-02-13T23:08:47.697Z,7.45
2018-02-13T23:11:15.286Z,6.57
2018-02-13T23:13:42.882Z,6.45
2018-02-13T23:16:10.491Z,6.10
2018-02-13T23:18:38.140Z,5.00
2018-02-13T23:21:05.714Z,4.87
2018-02-13T23:23:33.349Z,5.90
2018-02-13T23:26:00.950Z,6.30
2018-02-13T23:28:28.550Z,10.73
2018-02-13T23:30:56.115Z,8.48
2018-02-13T23:33:23.750Z,7.40
2018-02-13T23:35:51.359Z,5.85
2018-02-13T23:38:18.944Z,6.15
2018-02-13T23:40:46.556Z,5.95
2018-02-13T23:43:14.115Z,5.07
2018-02-13T23:45:41.715Z,6.25
2018-02-13T23:48:09.301Z,7.07
2018-02-13T23:50:36.943Z,6.25
2018-02-13T23:53:04.918Z,8.23
2018-02-13T23:55:32.588Z,7.43
2018-02-13T23:58:00.230Z,7.05
